Time;durP1;ratioP1;P1;durP2;ratioP2;P2;SDS_P1;SDS_P2;PMS_P1;PMS_P2;Temp;Humidity;BMP_temperature;BMP_pressure;BME280_temperature;BME280_humidity;BME280_pressure;Samples;Min_cycle;Max_cycle;Signal;HPM_P1;HPM_P2
2023/01/10 00:00:39;;;;;;;4.75;1.45;;;4.80;99.90;;;;;;7406123;19;19971;-72
2023/01/10 00:03:10;;;;;;;3.80;1.45;;;4.40;99.90;;;;;;7406137;19;19914;-72
2023/01/10 00:05:42;;;;;;;6.13;1.08;;;4.30;99.90;;;;;;7403266;19;19922;-71
2023/01/10 00:08:16;;;;;;;4.78;1.10;;;4.30;99.90;;;;;;7405780;19;19911;-72
2023/01/10 00:10:45;;;;;;;4.25;1.20;;;4.90;99.90;;;;;;7404085;19;19915;-72
2023/01/10 00:13:23;;;;;;;3.85;1.08;;;4.30;99.90;;;;;;7405458;19;19922;-72
2023/01/10 00:15:52;;;;;;;11.25;2.00;;;4.30;99.90;;;;;;7405709;19;19922;-71
2023/01/10 00:18:22;;;;;;;6.07;1.25;;;4.90;99.90;;;;;;7405821;19;20355;-72
2023/01/10 00:20:53;;;;;;;11.80;1.55;;;4.30;99.90;;;;;;7405217;19;20408;-71
2023/01/10 00:23:24;;;;;;;9.05;1.30;;;4.40;99.90;;;;;;7405334;19;19950;-72
2023/01/10 00:25:53;;;;;;;5.07;1.02;;;4.30;99.90;;;;;;7405395;19;19974;-71
2023/01/10 00:28:23;;;;;;;3.80;1.00;;;4.90;99.90;;;;;;7405898;19;19939;-72
2023/01/10 00:31:00;;;;;;;5.47;1.00;;;4.40;99.90;;;;;;7402444;19;20272;-71
2023/01/10 00:33:30;;;;;;;3.58;1.55;;;4.40;99.90;;;;;;7407555;19;19935;-72
2023/01/10 00:36:02;;;;;;;10.60;1.35;;;4.20;99.90;;;;;;7405356;19;19921;-71
2023/01/10 00:38:35;;;;;;;7.00;1.58;;;4.40;99.90;;;;;;7404940;19;19922;-71
2023/01/10 00:43:55;;;;;;;8.77;0.98;;;4.80;99.90;;;;;;7405428;19;19918;-71
2023/01/10 00:43:57;;;;;;;5.53;0.90;;;4.20;99.90;;;;;;7404938;19;19915;-71
2023/01/10 00:46:26;;;;;;;;;;;4.70;99.90;;;;;;7407442;19;19915;-71
2023/01/10 00:48:59;;;;;;;8.95;1.02;;;4.20;99.90;;;;;;7403322;19;20266;-71
2023/01/10 00:51:30;;;;;;;7.53;1.20;;;4.40;99.90;;;;;;7402816;19;19918;-71
2023/01/10 00:53:59;;;;;;;6.78;1.30;;;4.60;99.90;;;;;;7404917;19;19918;-71
2023/01/10 00:56:28;;;;;;;6.28;1.42;;;4.20;99.90;;;;;;7404368;19;20343;-71
2023/01/10 00:58:57;;;;;;;6.68;0.98;;;4.50;99.90;;;;;;7405177;19;19919;-72
2023/01/10 01:01:26;;;;;;;5.43;1.33;;;3.80;99.90;;;;;;7403114;19;20260;-71
2023/01/10 01:03:55;;;;;;;7.03;1.95;;;4.00;99.90;;;;;;7403636;19;19925;-71
2023/01/10 01:06:24;;;;;;;8.10;1.48;;;4.30;99.90;;;;;;7404490;19;19938;-71
2023/01/10 01:08:55;;;;;;;10.18;1.85;;;4.00;99.90;;;;;;7403964;19;20376;-71
2023/01/10 01:11:24;;;;;;;9.93;1.95;;;4.00;99.90;;;;;;7403348;19;20253;-70
2023/01/10 01:13:53;;;;;;;6.88;1.58;;;4.00;99.90;;;;;;7404009;19;19919;-70
2023/01/10 01:16:22;;;;;;;7.72;1.85;;;4.00;99.90;;;;;;7404328;19;19914;-71
2023/01/10 01:18:51;;;;;;;7.25;1.90;;;;;;;;;;7404087;19;19921;-71
2023/01/10 01:21:20;;;;;;;6.93;1.80;;;3.10;99.90;;;;;;7404427;19;19917;-71
2023/01/10 01:23:49;;;;;;;10.80;2.20;;;3.80;99.90;;;;;;7403859;19;19948;-71
2023/01/10 01:26:21;;;;;;;11.02;1.98;;;4.10;99.90;;;;;;7404005;19;20364;-71
2023/01/10 01:28:50;;;;;;;5.20;1.20;;;3.90;99.90;;;;;;7404044;19;20348;-71
2023/01/10 01:31:19;;;;;;;7.88;1.65;;;2.90;99.90;;;;;;7403398;19;20248;-71
2023/01/10 01:33:50;;;;;;;10.02;2.42;;;3.90;99.90;;;;;;7403567;19;19918;-71
2023/01/10 01:36:19;;;;;;;7.18;1.60;;;3.90;99.90;;;;;;7403427;19;19994;-71
2023/01/10 01:38:48;;;;;;;10.27;1.77;;;4.60;99.90;;;;;;7403917;19;19919;-71
2023/01/10 01:44:07;;;;;;;12.07;1.92;;;5.10;99.90;;;;;;7401321;19;20315;-72
2023/01/10 01:46:40;;;;;;;5.80;1.42;;;4.00;99.90;;;;;;7403056;19;19914;-72
2023/01/10 01:49:17;;;;;;;7.72;1.70;;;4.20;99.90;;;;;;7401818;19;19930;-72
2023/01/10 01:51:48;;;;;;;8.43;1.38;;;4.00;99.90;;;;;;7401433;19;19931;-72
2023/01/10 01:54:19;;;;;;;12.25;1.88;;;4.50;99.90;;;;;;7405186;19;19919;-72
2023/01/10 01:56:50;;;;;;;11.70;2.72;;;4.70;99.90;;;;;;7402487;19;19918;-72
2023/01/10 01:59:26;;;;;;;10.95;1.45;;;4.20;99.90;;;;;;7403200;19;19918;-71
2023/01/10 02:02:00;;;;;;;12.98;2.53;;;4.20;99.90;;;;;;7402578;19;19915;-72
2023/01/10 02:04:37;;;;;;;6.45;1.52;;;4.30;99.90;;;;;;7402386;19;19918;-71
2023/01/10 02:07:06;;;;;;;9.90;1.38;;;3.80;99.90;;;;;;7402333;19;19922;-71
2023/01/10 02:09:42;;;;;;;14.10;2.08;;;4.70;99.90;;;;;;7403070;19;19918;-71
2023/01/10 02:12:12;;;;;;;7.72;1.60;;;4.20;99.90;;;;;;7402380;19;19914;-71
2023/01/10 02:14:46;;;;;;;5.80;1.90;;;4.90;99.90;;;;;;7402924;19;19915;-72
2023/01/10 02:17:15;;;;;;;11.55;1.80;;;3.90;99.90;;;;;;7402505;19;19975;-72
2023/01/10 02:19:52;;;;;;;8.48;1.50;;;4.10;99.90;;;;;;7402182;19;19953;-72
2023/01/10 02:22:46;;;;;;;7.88;1.27;;;4.10;99.90;;;;;;7402135;19;19918;-72
2023/01/10 02:25:57;;;;;;;5.82;1.20;;;4.60;99.90;;;;;;7402060;19;19918;-72
2023/01/10 02:29:02;;;;;;;10.13;1.80;;;4.20;99.90;;;;;;7399901;19;19931;-72
2023/01/10 02:32:00;;;;;;;8.25;1.35;;;3.30;99.90;;;;;;7399561;19;19915;-71
2023/01/10 02:34:35;;;;;;;4.40;1.08;;;4.10;99.90;;;;;;7400933;19;19919;-72
2023/01/10 02:37:14;;;;;;;5.47;1.25;;;4.20;99.90;;;;;;7401890;19;19918;-71
2023/01/10 02:39:57;;;;;;;9.38;1.48;;;4.10;99.90;;;;;;7401423;19;19914;-71
2023/01/10 02:42:31;;;;;;;9.25;1.70;;;4.40;99.90;;;;;;7401259;19;19915;-72
2023/01/10 02:45:06;;;;;;;13.63;2.00;;;4.50;99.90;;;;;;7401327;19;19922;-72
2023/01/10 02:47:42;;;;;;;10.73;1.70;;;4.80;99.90;;;;;;7401016;19;20241;-71
2023/01/10 02:50:30;;;;;;;7.18;1.40;;;4.00;99.90;;;;;;7399071;19;20254;-71
2023/01/10 02:53:02;;;;;;;11.43;2.05;;;4.10;99.90;;;;;;7401208;19;19910;-71
2023/01/10 02:55:41;;;;;;;10.32;1.83;;;4.60;99.90;;;;;;7406059;19;19914;-71
2023/01/10 02:58:20;;;;;;;9.93;1.90;;;4.60;99.90;;;;;;7407779;19;19914;-71
2023/01/10 03:00:56;;;;;;;9.68;1.60;;;4.10;99.90;;;;;;7407771;19;19910;-71
2023/01/10 03:03:37;;;;;;;8.98;1.30;;;4.20;99.90;;;;;;7407119;19;19925;-72
2023/01/10 03:06:20;;;;;;;14.43;1.92;;;4.60;99.90;;;;;;7408759;19;19925;-72
2023/01/10 03:08:54;;;;;;;10.55;1.60;;;4.20;99.90;;;;;;7408319;19;19914;-72
2023/01/10 03:14:16;;;;;;;9.23;1.55;;;4.50;99.90;;;;;;7407710;19;19910;-72
2023/01/10 03:16:49;;;;;;;13.48;2.00;;;4.10;99.90;;;;;;7407792;19;19932;-72
2023/01/10 03:19:24;;;;;;;7.10;1.75;;;4.50;99.90;;;;;;7407521;19;19947;-72
2023/01/10 03:21:58;;;;;;;7.70;1.55;;;4.30;99.90;;;;;;7407093;19;19915;-72
2023/01/10 03:24:30;;;;;;;6.75;1.67;;;4.00;99.90;;;;;;7408021;19;19922;-72
2023/01/10 03:27:05;;;;;;;10.20;2.00;;;4.00;99.90;;;;;;7407016;19;19941;-71
2023/01/10 03:29:43;;;;;;;5.95;1.13;;;4.20;99.90;;;;;;7410805;19;19918;-72
2023/01/10 03:32:16;;;;;;;10.05;1.30;;;4.30;99.90;;;;;;7405033;19;19921;-72
2023/01/10 03:34:48;;;;;;;7.45;1.17;;;4.10;99.90;;;;;;7406307;19;19915;-72
2023/01/10 03:37:24;;;;;;;6.30;1.48;;;4.20;99.90;;;;;;7406669;19;19918;-71
2023/01/10 03:40:00;;;;;;;10.23;1.42;;;5.00;99.90;;;;;;7406557;19;20261;-71
2023/01/10 03:44:42;;;;;;;13.05;1.52;;;4.20;99.90;;;;;;7407009;19;19914;-72
2023/01/10 03:45:29;;;;;;;6.53;1.48;;;4.40;99.90;;;;;;7406668;19;19929;-71
2023/01/10 03:47:59;;;;;;;9.30;1.50;;;4.40;99.90;;;;;;7406592;19;19957;-72
2023/01/10 03:50:32;;;;;;;13.25;2.45;;;5.20;99.90;;;;;;7406219;19;19910;-72
2023/01/10 03:53:01;;;;;;;10.82;2.05;;;4.30;99.90;;;;;;7406510;19;19978;-71
2023/01/10 03:55:31;;;;;;;9.82;1.50;;;4.30;99.90;;;;;;7406258;19;20237;-73
2023/01/10 03:58:00;;;;;;;7.85;2.25;;;4.20;99.90;;;;;;7406451;19;19926;-72
2023/01/10 04:00:29;;;;;;;9.18;1.27;;;4.50;99.90;;;;;;7406171;19;19923;-70
2023/01/10 04:02:59;;;;;;;6.30;1.50;;;5.10;99.90;;;;;;7406418;19;19918;-70
2023/01/10 04:05:30;;;;;;;7.13;2.10;;;4.60;99.90;;;;;;7402347;19;19914;-71
2023/01/10 04:07:59;;;;;;;10.07;2.10;;;5.40;99.90;;;;;;7405625;19;19931;-70
2023/01/10 04:10:28;;;;;;;8.45;2.17;;;4.50;99.90;;;;;;7405292;19;20325;-71
2023/01/10 04:13:01;;;;;;;11.02;1.80;;;4.30;99.90;;;;;;7406122;19;19930;-71
2023/01/10 04:15:30;;;;;;;11.65;1.60;;;4.50;99.90;;;;;;7405759;19;19915;-71
2023/01/10 04:17:59;;;;;;;8.68;1.60;;;4.60;99.90;;;;;;7405882;19;19915;-71
2023/01/10 04:20:30;;;;;;;10.90;1.70;;;4.40;99.90;;;;;;7405558;19;19911;-71
2023/01/10 04:23:00;;;;;;;6.07;1.92;;;4.10;99.90;;;;;;7405790;19;19925;-71
2023/01/10 04:25:29;;;;;;;11.10;1.60;;;4.20;99.90;;;;;;7405488;19;19958;-71
2023/01/10 04:27:57;;;;;;;8.57;1.42;;;4.20;99.90;;;;;;7405670;19;19925;-71
2023/01/10 04:30:26;;;;;;;8.60;1.42;;;4.90;99.90;;;;;;7405293;19;19924;-71
2023/01/10 04:32:56;;;;;;;3.85;1.20;;;4.50;99.90;;;;;;7405252;19;19919;-71
2023/01/10 04:35:25;;;;;;;8.15;1.50;;;5.10;99.90;;;;;;7405128;19;19929;-71
2023/01/10 04:37:56;;;;;;;7.68;1.70;;;4.20;99.90;;;;;;7405639;19;19918;-71
2023/01/10 04:40:25;;;;;;;6.75;1.55;;;5.10;99.90;;;;;;7404828;19;19910;-71
2023/01/10 04:42:54;;;;;;;8.48;2.33;;;4.20;99.90;;;;;;7405225;19;20337;-71
2023/01/10 04:45:23;;;;;;;7.65;1.38;;;5.50;99.90;;;;;;7404738;19;19919;-71
2023/01/10 04:47:54;;;;;;;13.13;1.85;;;4.20;99.90;;;;;;7404624;19;20353;-72
2023/01/10 04:50:24;;;;;;;12.45;2.63;;;3.30;99.90;;;;;;7405071;19;19915;-71
2023/01/10 04:52:56;;;;;;;11.93;2.17;;;4.10;99.90;;;;;;7403057;19;19921;-71
2023/01/10 04:55:25;;;;;;;11.80;1.85;;;4.80;99.90;;;;;;7404629;19;20333;-71
2023/01/10 04:57:53;;;;;;;8.10;1.63;;;4.00;99.90;;;;;;7404561;19;19911;-71
2023/01/10 05:00:22;;;;;;;10.63;1.70;;;3.90;99.90;;;;;;7404207;19;20471;-71
2023/01/10 05:02:56;;;;;;;15.15;2.35;;;3.90;99.90;;;;;;7402602;19;19974;-71
2023/01/10 05:05:27;;;;;;;6.18;1.95;;;4.80;99.90;;;;;;7402750;19;20329;-71
2023/01/10 05:07:58;;;;;;;8.05;1.58;;;3.90;99.90;;;;;;7404363;19;19911;-71
2023/01/10 05:10:28;;;;;;;7.70;1.77;;;4.20;99.90;;;;;;7404760;19;19921;-72
2023/01/10 05:12:57;;;;;;;10.75;1.67;;;3.90;99.90;;;;;;7402088;19;20236;-71
2023/01/10 05:15:25;;;;;;;7.30;1.65;;;4.30;99.90;;;;;;7404376;19;20392;-71
2023/01/10 05:17:59;;;;;;;11.60;1.85;;;4.80;99.90;;;;;;7403823;19;19918;-71
2023/01/10 05:20:28;;;;;;;13.82;2.30;;;4.00;99.90;;;;;;7404052;19;20264;-71
2023/01/10 05:23:00;;;;;;;13.30;1.75;;;4.20;99.90;;;;;;7404372;19;19915;-71
2023/01/10 05:25:29;;;;;;;5.53;1.40;;;3.60;99.90;;;;;;7405160;19;19922;-70
2023/01/10 05:27:58;;;;;;;10.07;1.92;;;4.10;99.90;;;;;;7404029;19;19925;-71
2023/01/10 05:30:26;;;;;;;6.30;1.38;;;4.00;99.90;;;;;;7403538;19;19911;-71
2023/01/10 05:32:56;;;;;;;13.20;1.95;;;4.80;99.90;;;;;;7402069;19;19966;-72
2023/01/10 05:35:25;;;;;;;7.65;1.75;;;4.40;99.90;;;;;;7401570;19;19927;-71
2023/01/10 05:37:54;;;;;;;12.57;2.03;;;3.50;99.90;;;;;;7403398;19;19923;-71
2023/01/10 05:40:25;;;;;;;12.65;1.92;;;3.40;99.90;;;;;;7403663;19;20341;-71
2023/01/10 05:42:54;;;;;;;12.77;1.92;;;4.70;99.90;;;;;;7403339;19;19939;-71
2023/01/10 05:45:24;;;;;;;7.20;2.05;;;3.20;99.90;;;;;;7403001;19;20002;-71
2023/01/10 05:47:53;;;;;;;9.32;1.83;;;4.50;99.90;;;;;;7402834;19;19935;-71
2023/01/10 05:50:22;;;;;;;11.13;2.33;;;4.90;99.90;;;;;;7402733;19;20399;-71
2023/01/10 05:52:50;;;;;;;10.45;2.08;;;4.10;99.90;;;;;;7401627;19;19910;-71
2023/01/10 05:55:19;;;;;;;4.70;1.60;;;4.20;99.90;;;;;;7402908;19;19931;-71
2023/01/10 05:57:51;;;;;;;8.75;2.03;;;4.20;99.90;;;;;;7402833;19;20237;-71
2023/01/10 06:00:21;;;;;;;10.88;1.95;;;4.30;99.90;;;;;;7403192;19;19914;-72
2023/01/10 06:02:56;;;;;;;10.90;2.38;;;4.20;99.90;;;;;;7403277;19;20356;-71
2023/01/10 06:05:26;;;;;;;11.15;2.15;;;5.00;99.90;;;;;;7400935;19;19923;-71
2023/01/10 06:07:55;;;;;;;9.32;1.95;;;4.20;99.90;;;;;;7402856;19;19921;-72
2023/01/10 06:10:24;;;;;;;6.00;1.80;;;5.40;99.90;;;;;;7402387;19;19974;-71
2023/01/10 06:12:55;;;;;;;8.80;1.88;;;4.30;99.90;;;;;;7400406;19;20259;-71
2023/01/10 06:15:24;;;;;;;15.80;2.55;;;4.40;99.90;;;;;;7402241;19;19918;-71
2023/01/10 06:17:53;;;;;;;11.30;2.90;;;4.30;99.90;;;;;;7401851;19;19922;-71
2023/01/10 06:20:22;;;;;;;12.07;2.50;;;4.40;99.90;;;;;;7401935;19;19918;-71
2023/01/10 06:22:54;;;;;;;10.70;1.85;;;4.70;99.90;;;;;;7401647;19;19930;-71
2023/01/10 06:25:23;;;;;;;;;;;5.00;99.90;;;;;;7407928;19;19982;-71
2023/01/10 06:27:54;;;;;;;11.05;2.35;;;4.30;99.90;;;;;;7402592;19;19922;-71
2023/01/10 06:30:23;;;;;;;11.55;2.78;;;5.50;99.90;;;;;;7407253;19;19914;-71
2023/01/10 06:32:52;;;;;;;8.45;2.13;;;4.60;99.90;;;;;;7406730;19;20357;-71
2023/01/10 06:35:22;;;;;;;9.98;2.13;;;5.30;99.90;;;;;;7407835;19;19925;-71
2023/01/10 06:37:51;;;;;;;10.20;2.45;;;4.60;99.90;;;;;;7408400;19;20345;-71
2023/01/10 06:40:20;;;;;;;12.35;2.13;;;4.70;99.90;;;;;;7408185;19;19919;-71
2023/01/10 06:42:49;;;;;;;10.80;1.65;;;4.50;99.90;;;;;;7408888;19;19919;-71
2023/01/10 06:45:21;;;;;;;11.98;2.10;;;4.50;99.90;;;;;;7408275;19;19918;-71
2023/01/10 06:47:49;;;;;;;13.73;2.13;;;4.90;99.90;;;;;;7408330;19;19932;-72
2023/01/10 06:50:19;;;;;;;10.77;2.20;;;4.40;99.90;;;;;;7408020;19;20349;-72
2023/01/10 06:52:48;;;;;;;16.98;2.75;;;4.50;99.90;;;;;;7405876;19;19923;-71
2023/01/10 06:55:17;;;;;;;6.65;1.88;;;4.50;99.90;;;;;;7407891;19;19989;-71
2023/01/10 06:57:46;;;;;;;6.75;1.55;;;4.50;99.90;;;;;;7407660;19;19974;-71
2023/01/10 07:00:16;;;;;;;6.53;1.80;;;4.50;99.90;;;;;;7407724;19;19919;-71
2023/01/10 07:02:47;;;;;;;4.75;1.60;;;4.40;99.90;;;;;;7408086;19;19941;-71
2023/01/10 07:05:16;;;;;;;15.38;2.50;;;5.30;99.90;;;;;;7404615;19;19923;-71
2023/01/10 07:07:45;;;;;;;13.88;2.13;;;4.40;99.90;;;;;;7407735;19;19915;-70
2023/01/10 07:10:14;;;;;;;7.60;1.77;;;4.40;99.90;;;;;;7407501;19;19978;-72
2023/01/10 07:12:43;;;;;;;11.00;1.67;;;4.50;99.90;;;;;;7405856;19;20005;-72
2023/01/10 07:15:13;;;;;;;8.65;1.73;;;4.50;99.90;;;;;;7407337;19;19911;-72
2023/01/10 07:17:42;;;;;;;12.90;1.85;;;4.30;99.90;;;;;;7407560;19;19937;-72
2023/01/10 07:20:14;;;;;;;13.27;1.92;;;4.30;99.90;;;;;;7407877;19;20243;-73
2023/01/10 07:22:43;;;;;;;10.85;2.03;;;4.40;99.90;;;;;;7408398;19;19918;-75
2023/01/10 07:25:12;;;;;;;6.95;2.15;;;4.80;99.90;;;;;;7407161;19;19922;-72
2023/01/10 07:27:42;;;;;;;11.25;1.38;;;4.10;99.90;;;;;;7407478;19;19914;-72
2023/01/10 07:30:12;;;;;;;12.15;2.53;;;4.10;99.90;;;;;;7406840;19;19922;-72
2023/01/10 07:32:41;;;;;;;11.77;2.40;;;3.30;99.90;;;;;;7405367;19;19922;-72
2023/01/10 07:35:13;;;;;;;10.18;2.38;;;4.30;99.90;;;;;;7406685;19;20286;-72
2023/01/10 07:37:43;;;;;;;9.35;2.90;;;4.10;99.90;;;;;;7406771;19;19914;-72
2023/01/10 07:40:13;;;;;;;7.65;2.25;;;4.00;99.90;;;;;;7406006;19;19918;-72
2023/01/10 07:42:42;;;;;;;15.32;3.42;;;4.00;99.90;;;;;;7403926;19;19918;-72
2023/01/10 07:45:12;;;;;;;13.13;2.40;;;4.10;99.90;;;;;;7406845;19;19925;-73
2023/01/10 07:47:41;;;;;;;13.75;2.78;;;4.00;99.90;;;;;;7406274;19;19930;-72
2023/01/10 07:50:13;;;;;;;7.22;2.17;;;4.60;99.90;;;;;;7403951;19;19934;-73
2023/01/10 07:52:42;;;;;;;15.00;3.00;;;4.70;99.90;;;;;;7405423;19;19929;-72
2023/01/10 07:55:11;;;;;;;15.82;3.63;;;5.00;99.90;;;;;;7406236;19;20351;-72
2023/01/10 07:57:40;;;;;;;10.60;2.72;;;4.10;99.90;;;;;;7406439;19;20285;-72
2023/01/10 08:00:11;;;;;;;11.98;2.85;;;4.60;99.90;;;;;;7405758;19;19922;-72
2023/01/10 08:02:40;;;;;;;6.78;2.25;;;4.20;99.90;;;;;;7406380;19;19921;-72
2023/01/10 08:05:09;;;;;;;14.02;2.92;;;3.50;99.90;;;;;;7403674;19;20347;-72
2023/01/10 08:07:41;;;;;;;12.65;2.97;;;4.10;99.90;;;;;;7406184;19;19926;-72
2023/01/10 08:10:11;;;;;;;11.13;2.30;;;4.30;99.90;;;;;;7405827;19;20408;-72
2023/01/10 08:12:40;;;;;;;11.73;2.45;;;4.50;99.90;;;;;;7404876;19;19914;-72
2023/01/10 08:15:10;;;;;;;17.38;3.05;;;4.40;99.90;;;;;;7406099;19;19921;-72
2023/01/10 08:17:39;;;;;;;14.57;2.55;;;4.30;99.90;;;;;;7406209;19;19911;-72
2023/01/10 08:20:10;;;;;;;15.70;3.53;;;5.00;99.90;;;;;;7405331;19;20245;-72
2023/01/10 08:22:41;;;;;;;22.88;3.30;;;4.30;99.90;;;;;;7408883;19;19919;-72
2023/01/10 08:25:11;;;;;;;14.90;2.90;;;4.50;99.90;;;;;;7405887;19;19918;-72
2023/01/10 08:27:40;;;;;;;12.43;2.95;;;4.40;99.90;;;;;;7405688;19;19935;-73
2023/01/10 08:30:11;;;;;;;12.25;2.90;;;5.00;99.90;;;;;;7405308;19;19925;-72
2023/01/10 08:32:39;;;;;;;18.83;3.03;;;4.60;99.90;;;;;;7404712;19;20338;-72
2023/01/10 08:35:09;;;;;;;14.05;2.78;;;4.50;99.90;;;;;;7404550;19;19985;-73
2023/01/10 08:37:41;;;;;;;8.60;2.80;;;4.50;99.90;;;;;;7405529;19;20329;-72
2023/01/10 08:40:12;;;;;;;16.95;3.88;;;4.70;99.90;;;;;;7404929;19;19923;-72
2023/01/10 08:42:41;;;;;;;15.20;3.35;;;4.70;99.90;;;;;;7405350;19;20392;-72
2023/01/10 08:45:11;;;;;;;13.10;3.30;;;5.70;99.90;;;;;;7404630;19;19915;-72
2023/01/10 08:47:40;;;;;;;11.27;2.83;;;4.70;99.90;;;;;;7404786;19;19954;-72
2023/01/10 08:50:11;;;;;;;15.70;3.28;;;4.80;99.90;;;;;;7402926;19;19959;-72
2023/01/10 08:52:43;;;;;;;12.10;2.92;;;4.80;99.90;;;;;;7403561;19;20325;-72
2023/01/10 08:55:12;;;;;;;14.00;3.50;;;4.90;99.90;;;;;;7405821;19;19930;-72
2023/01/10 08:57:41;;;;;;;17.73;3.90;;;4.90;99.90;;;;;;7404472;19;19923;-72
2023/01/10 09:00:13;;;;;;;14.77;2.53;;;4.80;99.90;;;;;;7405397;19;19935;-72
2023/01/10 09:02:42;;;;;;;13.52;3.40;;;4.80;99.90;;;;;;7404431;19;19939;-72
2023/01/10 09:05:12;;;;;;;11.50;2.88;;;5.50;99.90;;;;;;7403413;19;19922;-72
2023/01/10 09:07:45;;;;;;;15.65;2.88;;;5.60;99.90;;;;;;7404594;19;19928;-72
2023/01/10 09:10:14;;;;;;;14.13;3.33;;;4.90;99.90;;;;;;7404529;19;20350;-72
2023/01/10 09:13:00;;;;;;;19.17;4.03;;;5.00;99.90;;;;;;7403389;19;20159;-73
2023/01/10 09:15:31;;;;;;;12.15;2.75;;;5.00;99.90;;;;;;7405059;19;19929;-72
2023/01/10 09:18:01;;;;;;;19.52;3.60;;;4.90;99.90;;;;;;7404237;19;19943;-72
2023/01/10 09:20:31;;;;;;;15.18;3.15;;;5.50;99.90;;;;;;7405884;19;19966;-72
2023/01/10 09:23:07;;;;;;;17.15;3.58;;;5.10;99.90;;;;;;7404074;19;19951;-72
2023/01/10 09:25:36;;;;;;;10.57;2.00;;;4.90;99.90;;;;;;7404152;19;19910;-72
2023/01/10 09:28:06;;;;;;;9.90;2.78;;;5.20;99.90;;;;;;7404189;19;19915;-72
2023/01/10 09:30:35;;;;;;;18.73;3.38;;;5.00;99.90;;;;;;7403674;19;19974;-73
2023/01/10 09:33:05;;;;;;;4.78;2.03;;;5.10;99.90;;;;;;7402537;19;19914;-72
2023/01/10 09:35:36;;;;;;;12.52;2.88;;;5.20;99.90;;;;;;7403128;19;19926;-72
2023/01/10 09:38:13;;;;;;;12.23;3.05;;;6.00;99.90;;;;;;7403254;19;19922;-72
2023/01/10 09:40:55;;;;;;;16.30;2.40;;;6.10;99.90;;;;;;7403485;19;19922;-72
2023/01/10 09:43:32;;;;;;;14.73;2.75;;;5.70;99.90;;;;;;7403977;19;19918;-72
2023/01/10 09:46:07;;;;;;;9.85;2.63;;;6.00;99.90;;;;;;7403705;19;19929;-72
2023/01/10 09:48:47;;;;;;;11.20;2.42;;;5.20;99.90;;;;;;7402652;19;19919;-72
2023/01/10 09:51:29;;;;;;;10.93;2.47;;;5.30;99.90;;;;;;7403503;19;19951;-72
2023/01/10 09:54:05;;;;;;;14.48;3.17;;;5.30;99.90;;;;;;7401301;19;19918;-72
2023/01/10 09:56:36;;;;;;;12.05;2.47;;;5.50;99.90;;;;;;7403069;19;19970;-72
2023/01/10 09:59:05;;;;;;;9.50;2.08;;;5.40;99.90;;;;;;7402720;19;19918;-72
2023/01/10 10:01:37;;;;;;;10.65;2.17;;;5.40;99.90;;;;;;7402725;19;19919;-72
2023/01/10 10:04:18;;;;;;;14.02;3.38;;;5.60;99.90;;;;;;7402862;19;19922;-72
2023/01/10 10:06:49;;;;;;;10.05;2.33;;;5.90;99.90;;;;;;7409119;19;19918;-72
2023/01/10 10:09:25;;;;;;;14.25;2.60;;;6.60;99.90;;;;;;7409116;19;19934;-72
2023/01/10 10:12:05;;;;;;;10.77;2.50;;;5.50;99.90;;;;;;7409100;19;19925;-72
2023/01/10 10:14:46;;;;;;;11.93;2.83;;;5.40;99.90;;;;;;7406340;19;19918;-72
2023/01/10 10:17:43;;;;;;;9.52;2.55;;;5.50;99.90;;;;;;7408835;19;19918;-72
2023/01/10 10:20:26;;;;;;;16.40;2.60;;;5.50;99.90;;;;;;7413156;19;19911;-72
2023/01/10 10:23:02;;;;;;;;;;;6.60;99.90;;;;;;7411200;19;19915;-73
2023/01/10 10:25:51;;;;;;;7.93;2.00;;;5.50;99.90;;;;;;7408742;19;19911;-70
2023/01/10 10:28:54;;;;;;;11.77;2.08;;;5.40;99.90;;;;;;7408913;19;19939;-73
2023/01/10 10:31:36;;;;;;;18.52;2.78;;;5.40;99.90;;;;;;7406909;19;19917;-72
2023/01/10 10:34:13;;;;;;;15.27;3.00;;;5.50;99.90;;;;;;7406011;19;19918;-72
2023/01/10 10:36:49;;;;;;;10.82;2.53;;;5.70;99.90;;;;;;7408867;19;19919;-72
2023/01/10 10:39:21;;;;;;;10.20;1.88;;;5.50;99.90;;;;;;7408270;19;20413;-72
2023/01/10 10:41:55;;;;;;;11.30;2.40;;;5.40;99.90;;;;;;7408491;19;20301;-72
2023/01/10 10:44:38;;;;;;;12.52;2.30;;;5.40;99.90;;;;;;7408324;19;19978;-72
2023/01/10 10:47:15;;;;;;;15.27;3.25;;;5.30;99.90;;;;;;7408621;19;19915;-72
2023/01/10 10:49:48;;;;;;;10.75;2.50;;;5.50;99.90;;;;;;7406271;19;19925;-72
2023/01/10 10:52:24;;;;;;;17.50;2.85;;;5.90;99.90;;;;;;7407651;19;19914;-72
2023/01/10 10:54:54;;;;;;;14.80;2.58;;;5.40;99.90;;;;;;7405527;19;19930;-72
2023/01/10 10:57:29;;;;;;;11.25;2.22;;;5.50;99.90;;;;;;7407606;19;20375;-72
2023/01/10 10:59:59;;;;;;;10.40;2.63;;;5.40;99.90;;;;;;7408703;19;19928;-72
2023/01/10 11:02:30;;;;;;;19.02;2.60;;;5.50;99.90;;;;;;7407348;19;19966;-72
2023/01/10 11:05:03;;;;;;;13.10;2.90;;;5.70;99.90;;;;;;7405396;19;20260;-73
2023/01/10 11:07:36;;;;;;;13.93;3.00;;;5.50;99.90;;;;;;7408017;19;19925;-72
2023/01/10 11:10:17;;;;;;;15.63;3.30;;;5.60;99.90;;;;;;7407179;19;19911;-73
2023/01/10 11:12:52;;;;;;;13.10;3.25;;;5.50;99.90;;;;;;7407150;19;20369;-72
2023/01/10 11:15:39;;;;;;;8.95;2.33;;;5.50;99.90;;;;;;7406824;19;19926;-72
2023/01/10 11:18:12;;;;;;;13.93;3.00;;;5.50;99.90;;;;;;7410055;19;19937;-70
2023/01/10 11:20:50;;;;;;;8.55;2.65;;;5.40;99.90;;;;;;7406958;19;19977;-72
2023/01/10 11:23:34;;;;;;;15.73;3.65;;;5.70;99.90;;;;;;7406895;19;19915;-70
2023/01/10 11:26:03;;;;;;;16.08;2.63;;;5.40;99.90;;;;;;7405258;19;19917;-71
2023/01/10 11:28:35;;;;;;;13.20;3.08;;;6.80;99.90;;;;;;7407193;19;19926;-71
2023/01/10 11:31:05;;;;;;;14.43;2.28;;;5.60;99.90;;;;;;7407060;19;19928;-70
2023/01/10 11:33:38;;;;;;;20.20;3.25;;;6.20;99.90;;;;;;7405508;19;20017;-71
2023/01/10 11:36:11;;;;;;;13.20;2.70;;;5.70;99.90;;;;;;7405961;19;19985;-71
2023/01/10 11:38:40;;;;;;;12.38;3.30;;;5.60;99.90;;;;;;7406352;19;19918;-70
2023/01/10 11:41:32;;;;;;;20.67;4.13;;;6.30;99.90;;;;;;7406799;19;19943;-70
2023/01/10 11:44:23;;;;;;;20.52;4.47;;;5.70;99.90;;;;;;7406751;19;19918;-71
2023/01/10 11:46:55;;;;;;;10.85;3.45;;;5.60;99.90;;;;;;7404438;19;20424;-70
2023/01/10 11:49:31;;;;;;;17.38;3.80;;;5.80;99.90;;;;;;7404508;19;19918;-71
2023/01/10 11:52:04;;;;;;;16.45;4.15;;;5.80;99.90;;;;;;7406541;19;19925;-72
2023/01/10 11:54:34;;;;;;;21.67;3.47;;;5.80;99.90;;;;;;7404180;19;19919;-71
2023/01/10 11:57:09;;;;;;;19.08;4.65;;;5.80;99.90;;;;;;7406217;19;20337;-71
2023/01/10 11:59:40;;;;;;;19.70;4.30;;;5.80;99.90;;;;;;7405828;19;19948;-72
2023/01/10 12:02:19;;;;;;;16.55;3.95;;;5.70;99.90;;;;;;7406650;19;19915;-72
2023/01/10 12:04:51;;;;;;;10.70;3.88;;;5.70;99.90;;;;;;7404374;19;20015;-72
2023/01/10 12:07:21;;;;;;;15.63;4.10;;;5.80;99.90;;;;;;7405813;19;19921;-72
2023/01/10 12:09:58;;;;;;;11.88;4.20;;;5.80;99.90;;;;;;7406290;19;19970;-71
2023/01/10 12:12:29;;;;;;;15.80;3.80;;;5.70;99.90;;;;;;7405736;19;19919;-71
2023/01/10 12:15:21;;;;;;;14.95;3.65;;;5.80;99.90;;;;;;7403986;19;19918;-72
2023/01/10 12:17:50;;;;;;;17.15;4.38;;;5.70;99.90;;;;;;7405773;19;19914;-71
2023/01/10 12:20:19;;;;;;;15.32;3.97;;;5.90;99.90;;;;;;7405745;19;19918;-71
2023/01/10 12:22:52;;;;;;;18.45;3.80;;;5.70;99.90;;;;;;7405865;19;19925;-71
2023/01/10 12:25:23;;;;;;;14.60;3.13;;;6.00;99.90;;;;;;7405303;19;19910;-71
2023/01/10 12:27:52;;;;;;;16.00;3.70;;;5.70;99.90;;;;;;7403742;19;20011;-72
2023/01/10 12:30:32;;;;;;;18.52;4.72;;;6.20;99.90;;;;;;7405037;19;19926;-72
2023/01/10 12:33:08;;;;;;;12.70;3.80;;;5.70;99.90;;;;;;7405725;19;19911;-71
2023/01/10 12:35:42;;;;;;;18.25;4.78;;;5.60;99.90;;;;;;7404673;19;19918;-71
2023/01/10 12:38:26;;;;;;;19.58;4.20;;;6.20;99.90;;;;;;7405513;19;19922;-71
2023/01/10 12:41:00;;;;;;;19.40;3.65;;;5.70;99.90;;;;;;7408146;19;20452;-69
2023/01/10 12:46:24;;;;;;;18.75;5.28;;;6.80;99.90;;;;;;7404545;19;19911;-72
2023/01/10 12:49:00;;;;;;;10.60;3.00;;;5.80;99.90;;;;;;7388853;19;19924;-75
2023/01/10 12:51:31;;;;;;;14.82;3.55;;;5.70;99.90;;;;;;7403302;19;20321;-75
2023/01/10 12:54:04;;;;;;;11.82;3.28;;;5.50;99.90;;;;;;7403337;19;19914;-75
2023/01/10 12:56:34;;;;;;;11.65;3.20;;;5.60;99.90;;;;;;7406136;19;19925;-74
2023/01/10 12:59:08;;;;;;;16.70;3.17;;;5.70;99.90;;;;;;7404214;19;19918;-75
2023/01/10 13:01:42;;;;;;;11.00;2.63;;;5.70;99.90;;;;;;7405885;19;19923;-75
2023/01/10 13:04:15;;;;;;;11.38;3.83;;;5.70;99.90;;;;;;7403363;19;19921;-70
2023/01/10 13:06:46;;;;;;;15.13;3.03;;;5.60;99.90;;;;;;7403696;19;19927;-72
2023/01/10 13:09:18;;;;;;;12.07;3.97;;;5.60;99.90;;;;;;7404716;19;19918;-84
2023/01/10 13:11:55;;;;;;;16.75;3.92;;;5.50;99.90;;;;;;7404208;19;19914;-80
2023/01/10 13:14:28;;;;;;;16.35;2.90;;;5.60;99.90;;;;;;7401367;19;19918;-81
2023/01/10 13:17:11;;;;;;;18.05;3.20;;;6.70;99.90;;;;;;7421143;19;19935;-80
2023/01/10 13:19:42;;;;;;;22.33;3.05;;;5.60;99.90;;;;;;7405019;19;20282;-77
2023/01/10 13:29:58;;;;;;;17.27;3.67;;;6.40;99.90;;;;;;7316174;19;19947;-84
2023/01/10 13:32:32;;;;;;;12.63;2.95;;;5.60;99.90;;;;;;7393737;19;19938;-81
2023/01/10 13:35:15;;;;;;;14.98;3.45;;;6.00;99.90;;;;;;7406527;19;20975;-84